Time;durP1;ratioP1;P1;durP2;ratioP2;P2;SDS_P1;SDS_P2;PMS_P1;PMS_P2;Temp;Humidity;BMP_temperature;BMP_pressure;BME280_temperature;BME280_humidity;BME280_pressure;Samples;Min_cycle;Max_cycle;Signal;HPM_P1;HPM_P2
2021/07/22 00:02:39;;;;;;;20.13;10.63;;;;;;;17.51;95.26;102008.06;6251711;28;20045;-78
2021/07/22 00:05:40;;;;;;;15.57;9.98;;;;;;;17.44;96.06;102001.41;6251715;28;20057;-78
2021/07/22 00:08:41;;;;;;;16.35;10.63;;;;;;;17.45;95.86;102000.50;6251595;28;20485;-78
2021/07/22 00:11:45;;;;;;;15.82;10.43;;;;;;;17.35;96.18;102001.97;6251676;28;20053;-78
2021/07/22 00:14:46;;;;;;;19.90;10.88;;;;;;;17.32;96.26;102000.38;6250943;28;20128;-78
2021/07/22 00:17:49;;;;;;;19.30;10.70;;;;;;;17.38;95.85;101994.69;6251821;28;20060;-78
2021/07/22 00:20:50;;;;;;;17.10;10.25;;;;;;;17.37;95.69;101992.13;6251346;28;20077;-77
2021/07/22 00:23:52;;;;;;;17.58;10.88;;;;;;;17.27;95.72;101991.84;6251361;28;20049;-78
2021/07/22 00:26:54;;;;;;;19.70;9.85;;;;;;;17.19;95.82;101992.31;6251217;28;20052;-78
2021/07/22 00:29:55;;;;;;;21.58;11.07;;;;;;;17.29;96.39;101997.06;6251145;28;20080;-78
2021/07/22 00:32:58;;;;;;;20.55;11.20;;;;;;;17.23;95.27;101992.97;6251081;28;20049;-77
2021/07/22 00:35:59;;;;;;;15.55;10.10;;;;;;;17.16;95.25;101991.63;6251209;28;20050;-77
2021/07/22 00:39:01;;;;;;;21.70;10.25;;;;;;;17.03;95.95;101994.19;6251599;28;20139;-78
2021/07/22 00:42:02;;;;;;;15.63;10.50;;;;;;;16.95;97.12;101988.50;6251130;28;20397;-78
2021/07/22 00:45:04;;;;;;;17.40;10.95;;;;;;;16.84;97.10;101991.78;6251078;28;20436;-78
2021/07/22 00:48:07;;;;;;;21.27;11.55;;;;;;;16.77;98.24;101994.91;6250932;28;20057;-78
2021/07/22 00:51:09;;;;;;;15.18;10.80;;;;;;;16.73;98.36;101991.59;6251165;28;20057;-77
2021/07/22 00:54:10;;;;;;;19.55;10.60;;;;;;;16.71;99.28;101996.97;6249758;28;20050;-77
2021/07/22 00:57:12;;;;;;;20.85;12.13;;;;;;;16.72;99.29;101997.84;6251145;28;20045;-78
2021/07/22 01:00:14;;;;;;;22.45;12.13;;;;;;;16.64;99.33;101992.94;6251350;28;20139;-77
2021/07/22 01:03:17;;;;;;;16.77;10.93;;;;;;;16.60;100.00;101994.06;6250122;28;20074;-78
2021/07/22 01:06:18;;;;;;;17.52;11.45;;;;;;;16.73;100.00;101988.94;6250464;28;20072;-78
2021/07/22 01:09:19;;;;;;;19.10;11.73;;;;;;;16.71;99.56;101990.78;6250185;28;20060;-78
2021/07/22 01:12:21;;;;;;;20.23;11.43;;;;;;;16.66;99.65;101987.53;6250777;28;20493;-78
2021/07/22 01:15:22;;;;;;;19.25;11.45;;;;;;;16.68;100.00;101980.34;6250023;28;20060;-77
2021/07/22 01:18:25;;;;;;;18.55;11.75;;;;;;;16.71;99.93;101982.81;6250122;28;20053;-77
2021/07/22 01:21:28;;;;;;;20.88;11.55;;;;;;;16.67;99.77;101982.16;6250204;28;20052;-77
2021/07/22 01:24:29;;;;;;;19.73;12.85;;;;;;;16.61;100.00;101986.94;6249986;28;20049;-78
2021/07/22 01:27:30;;;;;;;24.63;13.27;;;;;;;16.56;99.99;101984.56;6249867;28;20049;-78
2021/07/22 01:30:32;;;;;;;21.25;13.75;;;;;;;16.42;100.00;101990.69;6250072;28;20049;-77
2021/07/22 01:33:33;;;;;;;21.35;12.85;;;;;;;16.39;100.00;101996.16;6249882;28;20057;-78
2021/07/22 01:36:36;;;;;;;19.85;12.70;;;;;;;16.42;100.00;101992.50;6250665;28;20497;-77
2021/07/22 01:39:37;;;;;;;18.45;12.65;;;;;;;16.29;100.00;101991.47;6250368;28;20053;-78
2021/07/22 01:42:39;;;;;;;22.45;14.35;;;;;;;16.26;100.00;101992.53;6250208;28;20524;-78
2021/07/22 01:45:40;;;;;;;21.38;12.93;;;;;;;16.21;100.00;101987.50;6249833;28;20049;-77
2021/07/22 01:48:41;;;;;;;20.20;13.32;;;;;;;16.15;100.00;101990.47;6250288;28;20057;-77
2021/07/22 01:51:44;;;;;;;23.45;13.45;;;;;;;16.07;100.00;101992.69;6250122;28;20072;-77
2021/07/22 01:54:45;;;;;;;19.05;12.75;;;;;;;16.02;100.00;101988.59;6249978;28;20046;-78
2021/07/22 01:57:47;;;;;;;20.92;12.38;;;;;;;15.96;100.00;101982.72;6250128;28;20056;-78
2021/07/22 02:00:48;;;;;;;21.60;13.82;;;;;;;15.95;100.00;101990.75;6249761;28;20049;-78
2021/07/22 02:03:49;;;;;;;22.00;13.52;;;;;;;15.85;100.00;101982.47;6248717;28;20055;-77
2021/07/22 02:06:52;;;;;;;19.05;12.45;;;;;;;15.89;100.00;101988.44;6249692;28;20056;-78
2021/07/22 02:09:54;;;;;;;24.30;13.55;;;;;;;15.84;100.00;101983.38;6249884;28;20053;-78
2021/07/22 02:12:55;;;;;;;19.75;13.10;;;;;;;15.88;100.00;101986.72;6249246;28;20046;-77
2021/07/22 02:15:57;;;;;;;22.35;13.50;;;;;;;15.87;100.00;101991.19;6249294;28;20053;-78
2021/07/22 02:18:58;;;;;;;21.27;13.77;;;;;;;15.88;100.00;101978.78;6248866;28;20401;-78
2021/07/22 02:22:01;;;;;;;20.50;12.90;;;;;;;15.89;100.00;101980.47;6249463;28;20056;-77
2021/07/22 02:25:02;;;;;;;21.75;12.98;;;;;;;15.97;100.00;101981.75;6248742;28;20049;-77
2021/07/22 02:28:04;;;;;;;24.40;14.05;;;;;;;15.94;100.00;101991.66;6249469;28;20497;-78
2021/07/22 02:31:05;;;;;;;22.02;13.38;;;;;;;15.87;100.00;101992.97;6249185;28;20404;-78
2021/07/22 02:34:06;;;;;;;23.25;13.05;;;;;;;15.82;100.00;101990.56;6248759;28;20129;-78
2021/07/22 02:37:09;;;;;;;22.83;13.18;;;;;;;15.88;100.00;101992.03;6248851;28;20124;-78
2021/07/22 02:40:11;;;;;;;21.63;12.93;;;;;;;15.85;100.00;101993.06;6248841;28;20057;-77
2021/07/22 02:43:12;;;;;;;23.33;13.45;;;;;;;15.89;100.00;101999.88;6249037;28;20049;-77
2021/07/22 02:46:14;;;;;;;20.10;12.68;;;;;;;16.01;100.00;102003.66;6248511;28;20049;-77
2021/07/22 02:49:16;;;;;;;26.63;13.55;;;;;;;16.05;100.00;101991.94;6248248;28;20064;-77
2021/07/22 02:52:18;;;;;;;21.27;13.52;;;;;;;16.05;100.00;101993.75;6248516;28;20493;-77
2021/07/22 02:55:20;;;;;;;21.17;13.07;;;;;;;16.03;100.00;102000.91;6247837;28;20045;-78
2021/07/22 02:58:21;;;;;;;20.83;13.38;;;;;;;15.94;100.00;101995.22;6248402;28;20053;-77
2021/07/22 03:01:23;;;;;;;24.02;14.05;;;;;;;15.96;100.00;101990.66;6248416;28;20045;-77
2021/07/22 03:04:25;;;;;;;21.10;13.35;;;;;;;16.00;100.00;101996.66;6248008;28;20064;-77
2021/07/22 03:07:27;;;;;;;23.73;13.10;;;;;;;15.91;100.00;101999.81;6248340;28;20061;-77
2021/07/22 03:10:29;;;;;;;21.63;12.80;;;;;;;15.84;100.00;101991.34;6248225;28;20045;-78
2021/07/22 03:13:30;;;;;;;25.55;13.63;;;;;;;15.84;100.00;101987.81;6248256;28;20049;-77
2021/07/22 03:16:31;;;;;;;22.20;13.23;;;;;;;15.84;100.00;101988.69;6247739;28;20049;-77
2021/07/22 03:19:33;;;;;;;21.77;12.57;;;;;;;15.98;100.00;101991.41;6247979;28;20047;-77
2021/07/22 03:22:35;;;;;;;24.63;13.55;;;;;;;15.94;100.00;101996.97;6248126;28;20069;-78
2021/07/22 03:25:37;;;;;;;18.88;12.85;;;;;;;15.96;99.61;101995.97;6247693;28;20424;-78
2021/07/22 03:28:38;;;;;;;21.00;13.18;;;;;;;15.76;100.00;101996.22;6248436;28;20056;-77
2021/07/22 03:31:40;;;;;;;21.35;13.25;;;;;;;15.79;100.00;101995.19;6247934;28;20410;-78
2021/07/22 03:34:41;;;;;;;24.77;13.70;;;;;;;15.72;100.00;101986.72;6248142;28;20050;-77
2021/07/22 03:37:44;;;;;;;22.23;12.98;;;;;;;15.72;100.00;101997.34;6248226;28;20049;-78
2021/07/22 03:40:45;;;;;;;22.45;13.98;;;;;;;15.71;100.00;101992.94;6248859;28;20052;-78
2021/07/22 03:43:46;;;;;;;23.92;13.30;;;;;;;15.71;100.00;101982.34;6248023;28;20050;-77
2021/07/22 03:46:48;;;;;;;19.75;13.30;;;;;;;15.78;100.00;101990.84;6248087;28;20052;-77
2021/07/22 03:49:49;;;;;;;21.42;12.98;;;;;;;15.70;100.00;101989.44;6248082;28;20050;-78
2021/07/22 03:52:55;;;;;;;26.35;13.38;;;;;;;15.65;100.00;101988.00;6247622;28;20041;-77
2021/07/22 03:55:57;;;;;;;18.27;12.30;;;;;;;15.72;100.00;101989.38;6247945;28;20140;-77
2021/07/22 03:58:58;;;;;;;22.77;13.43;;;;;;;15.71;100.00;101983.22;6247492;28;20080;-77
2021/07/22 04:02:01;;;;;;;24.90;15.13;;;;;;;15.63;100.00;101984.56;6248008;28;20511;-78
2021/07/22 04:05:03;;;;;;;23.50;12.68;;;;;;;15.70;100.00;101986.78;6246907;28;20041;-77
2021/07/22 04:08:06;;;;;;;25.10;14.00;;;;;;;15.69;100.00;101984.25;6247299;28;20049;-77
2021/07/22 04:11:07;;;;;;;19.88;12.73;;;;;;;15.62;100.00;101983.66;6246873;28;20060;-77
2021/07/22 04:14:08;;;;;;;20.60;12.93;;;;;;;15.60;100.00;101990.88;6246926;28;20049;-78
2021/07/22 04:17:13;;;;;;;21.92;13.05;;;;;;;15.55;100.00;101989.41;6247356;28;20512;-77
2021/07/22 04:20:14;;;;;;;21.33;14.00;;;;;;;15.54;100.00;101991.22;6247102;28;20060;-76
2021/07/22 04:23:17;;;;;;;20.88;13.18;;;;;;;15.58;100.00;101994.53;6245774;28;20408;-76
2021/07/22 04:26:19;;;;;;;27.17;13.80;;;;;;;15.46;100.00;101996.06;6245996;28;20049;-77
2021/07/22 04:29:20;;;;;;;24.58;14.15;;;;;;;15.37;100.00;101993.91;6249941;28;20061;-77
2021/07/22 04:32:21;;;;;;;22.92;13.15;;;;;;;15.37;100.00;101997.41;6250330;28;20050;-77
2021/07/22 04:35:23;;;;;;;22.77;13.43;;;;;;;15.37;100.00;101993.91;6249547;28;20428;-77
2021/07/22 04:38:26;;;;;;;26.35;15.00;;;;;;;15.43;100.00;101997.06;6249816;28;20072;-76
2021/07/22 04:41:27;;;;;;;25.48;15.20;;;;;;;15.50;100.00;101996.75;6249942;28;20054;-76
2021/07/22 04:44:28;;;;;;;22.98;13.88;;;;;;;15.58;100.00;101999.81;6249515;28;20409;-76
2021/07/22 04:47:30;;;;;;;22.17;14.63;;;;;;;15.68;100.00;101998.44;6249774;28;20053;-76
2021/07/22 04:50:31;;;;;;;21.33;14.05;;;;;;;15.68;100.00;101995.78;6248934;28;20050;-78
2021/07/22 04:53:34;;;;;;;20.65;12.70;;;;;;;15.70;100.00;101999.19;6249137;28;20052;-75
2021/07/22 04:56:36;;;;;;;20.77;14.20;;;;;;;15.65;100.00;101990.66;6248951;28;20148;-77
2021/07/22 04:59:37;;;;;;;22.20;13.82;;;;;;;15.67;100.00;101992.28;6249015;28;20061;-76
2021/07/22 05:02:38;;;;;;;21.88;13.82;;;;;;;15.67;100.00;101999.38;6249686;28;20517;-77
2021/07/22 05:05:40;;;;;;;22.80;13.70;;;;;;;15.65;100.00;101998.59;6249883;28;20053;-76
2021/07/22 05:08:44;;;;;;;24.73;13.75;;;;;;;15.68;100.00;101998.44;6249658;28;20050;-77
2021/07/22 05:11:45;;;;;;;22.88;13.68;;;;;;;15.76;100.00;101995.34;6249472;28;20081;-77
2021/07/22 05:14:47;;;;;;;25.50;14.73;;;;;;;15.71;100.00;101995.59;6249472;28;20050;-77
2021/07/22 05:17:48;;;;;;;23.02;13.98;;;;;;;15.77;100.00;102002.38;6249998;28;20068;-77
2021/07/22 05:20:49;;;;;;;26.63;13.90;;;;;;;15.85;100.00;102001.03;6248209;28;20083;-77
2021/07/22 05:23:52;;;;;;;19.33;12.52;;;;;;;15.91;100.00;102003.31;6247726;28;20041;-77
2021/07/22 05:26:53;;;;;;;23.95;13.45;;;;;;;15.98;100.00;102004.66;6247658;28;20046;-76
2021/07/22 05:29:55;;;;;;;20.48;12.70;;;;;;;16.03;100.00;102012.38;6248336;28;20052;-77
2021/07/22 05:32:56;;;;;;;22.45;12.68;;;;;;;16.06;99.18;102006.91;6249424;28;20045;-77
2021/07/22 05:36:02;;;;;;;22.10;12.35;;;;;;;15.96;99.71;102008.38;6249425;28;20060;-77
2021/07/22 05:39:04;;;;;;;18.40;11.52;;;;;;;16.03;100.00;102012.38;6248478;28;20463;-76
2021/07/22 05:42:06;;;;;;;24.02;12.52;;;;;;;16.05;99.61;102012.31;6248653;28;20045;-77
2021/07/22 05:45:08;;;;;;;22.13;12.10;;;;;;;16.07;100.00;102005.97;6248684;28;20076;-77
2021/07/22 05:48:10;;;;;;;18.58;12.40;;;;;;;16.07;100.00;102010.41;6248509;28;20061;-76
2021/07/22 05:51:11;;;;;;;18.60;11.02;;;;;;;16.04;100.00;102010.59;6248817;28;20512;-77
2021/07/22 05:54:14;;;;;;;21.27;11.18;;;;;;;15.96;99.96;102017.19;6248173;28;20140;-77
2021/07/22 05:57:15;;;;;;;20.90;12.00;;;;;;;15.95;99.94;102015.47;6248747;28;20049;-77
2021/07/22 06:00:17;;;;;;;21.52;12.00;;;;;;;15.95;100.00;102026.06;6248336;28;20049;-77
2021/07/22 06:03:19;;;;;;;19.85;12.65;;;;;;;16.04;99.84;102024.72;6248083;28;20057;-77
2021/07/22 06:06:20;;;;;;;22.63;11.93;;;;;;;16.06;99.38;102024.63;6248308;28;20053;-77
2021/07/22 06:09:23;;;;;;;22.63;12.18;;;;;;;16.07;99.51;102019.22;6248965;28;20493;-78
2021/07/22 06:12:26;;;;;;;19.77;10.95;;;;;;;16.24;98.48;102019.13;6250072;28;20056;-78
2021/07/22 06:15:28;;;;;;;20.27;11.63;;;;;;;16.13;97.96;102016.25;6249443;28;20063;-78
2021/07/22 06:18:30;;;;;;;17.42;11.02;;;;;;;16.20;98.36;102020.25;6249522;28;20062;-78
2021/07/22 06:21:31;;;;;;;20.35;10.95;;;;;;;16.13;98.69;102013.59;6249715;28;20425;-78
2021/07/22 06:24:34;;;;;;;20.45;11.25;;;;;;;16.11;96.99;102019.91;6249898;28;20050;-77
2021/07/22 06:27:36;;;;;;;19.10;10.80;;;;;;;16.16;99.07;102017.84;6249491;28;20076;-78
2021/07/22 06:30:38;;;;;;;20.42;11.88;;;;;;;16.28;97.61;102019.81;6249115;28;20419;-78
2021/07/22 06:33:39;;;;;;;17.55;11.13;;;;;;;16.28;95.67;102026.91;6248712;28;20072;-78
2021/07/22 06:36:40;;;;;;;20.98;10.90;;;;;;;16.44;96.30;102017.13;6249527;28;20053;-79
2021/07/22 06:39:43;;;;;;;21.77;12.63;;;;;;;16.48;95.55;102016.84;6249420;28;20412;-79
2021/07/22 06:42:44;;;;;;;24.85;12.15;;;;;;;16.36;95.71;102011.44;6249482;28;20041;-78
2021/07/22 06:45:46;;;;;;;18.05;12.27;;;;;;;16.39;96.05;102014.72;6248960;28;20053;-78
2021/07/22 06:48:49;;;;;;;15.57;10.65;;;;;;;16.51;95.83;102026.44;6249908;28;20052;-77
2021/07/22 06:51:51;;;;;;;17.63;10.57;;;;;;;16.56;95.77;102035.00;6248630;28;20045;-78
2021/07/22 06:54:54;;;;;;;17.83;9.57;;;;;;;16.58;94.43;102027.81;6248674;28;20051;-77
2021/07/22 06:57:55;;;;;;;16.90;9.18;;;;;;;16.57;95.32;102028.75;6248900;28;20138;-78
2021/07/22 07:00:56;;;;;;;16.42;9.65;;;;;;;16.68;94.30;102022.81;6248424;28;20053;-78
2021/07/22 07:03:58;;;;;;;15.75;9.38;;;;;;;16.69;95.56;102022.72;6248419;28;20060;-78
2021/07/22 07:06:59;;;;;;;15.85;9.82;;;;;;;16.76;94.82;102025.91;6248962;28;20049;-78
2021/07/22 07:10:02;;;;;;;17.02;9.43;;;;;;;16.87;95.28;102030.59;6247793;28;20049;-77
2021/07/22 07:13:03;;;;;;;16.83;9.27;;;;;;;16.99;95.05;102030.72;6248018;28;20489;-80
2021/07/22 07:16:06;;;;;;;18.45;10.45;;;;;;;17.16;94.09;102028.81;6247929;28;20056;-80
2021/07/22 07:19:08;;;;;;;17.55;10.55;;;;;;;17.04;94.05;102030.44;6248233;28;20139;-80
2021/07/22 07:22:09;;;;;;;16.17;9.35;;;;;;;17.08;95.22;102026.66;6248145;28;20049;-78
2021/07/22 07:25:13;;;;;;;13.15;8.85;;;;;;;17.13;94.14;102016.59;6247650;28;20045;-77
2021/07/22 07:28:14;;;;;;;13.70;8.85;;;;;;;17.26;93.65;102027.34;6247868;28;20053;-79
2021/07/22 07:31:21;;;;;;;20.55;8.73;;;;;;;17.30;93.06;102026.19;6247536;28;20049;-78
2021/07/22 07:34:22;;;;;;;11.82;8.60;;;;;;;17.34;93.12;102027.72;6246903;28;20045;-79
2021/07/22 07:37:23;;;;;;;12.95;8.50;;;;;;;17.34;92.57;102027.72;6247197;28;20061;-77
2021/07/22 07:40:26;;;;;;;11.48;7.63;;;;;;;17.47;92.01;102027.81;6246988;28;20049;-77
2021/07/22 07:43:27;;;;;;;14.20;7.18;;;;;;;17.64;90.02;102035.59;6247103;28;20053;-77
2021/07/22 07:46:28;;;;;;;11.93;6.38;;;;;;;17.59;87.57;102027.06;6246799;28;20053;-77
2021/07/22 07:49:30;;;;;;;10.07;6.00;;;;;;;17.58;86.27;102024.50;6245400;28;20053;-76
2021/07/22 07:52:31;;;;;;;10.35;6.70;;;;;;;17.57;87.97;102015.66;6245825;28;20042;-71
2021/07/22 07:55:34;;;;;;;12.23;7.63;;;;;;;17.56;88.59;102019.25;6227838;28;20061;-77
2021/07/22 07:58:35;;;;;;;15.73;7.43;;;;;;;17.71;89.85;102028.09;6230287;28;20060;-77
2021/07/22 08:01:37;;;;;;;9.02;5.68;;;;;;;17.82;87.41;102028.31;6246427;28;20045;-76
2021/07/22 08:04:38;;;;;;;13.43;6.25;;;;;;;17.96;86.67;102022.09;6250183;28;20056;-76
2021/07/22 08:07:39;;;;;;;12.93;6.40;;;;;;;17.97;84.04;102019.34;6237911;28;20050;-77
2021/07/22 08:10:42;;;;;;;14.98;6.40;;;;;;;18.07;82.82;102016.09;6225840;28;20435;-77
2021/07/22 08:13:43;;;;;;;9.95;5.90;;;;;;;18.10;84.42;102029.19;6225947;28;20050;-77
2021/07/22 08:16:46;;;;;;;10.10;5.97;;;;;;;18.15;82.64;102032.41;6226067;28;20054;-76
2021/07/22 08:19:47;;;;;;;10.45;5.43;;;;;;;17.95;83.37;102017.75;6225801;28;20057;-76
2021/07/22 08:22:49;;;;;;;13.25;6.47;;;;;;;18.04;84.65;102019.81;6225932;28;20046;-76
2021/07/22 08:25:51;;;;;;;8.93;5.05;;;;;;;18.08;82.81;102021.31;6247406;28;20057;-76
2021/07/22 08:28:53;;;;;;;7.13;5.30;;;;;;;18.16;84.39;102016.34;6250209;28;20492;-77
2021/07/22 08:31:54;;;;;;;14.00;5.78;;;;;;;18.30;83.01;102022.56;6250069;28;20056;-76
2021/07/22 08:34:55;;;;;;;9.50;5.97;;;;;;;18.36;80.25;102019.53;6249916;28;20045;-76
2021/07/22 08:37:57;;;;;;;11.05;5.07;;;;;;;18.41;80.51;102017.41;6250148;28;20489;-77
2021/07/22 08:41:00;;;;;;;11.32;5.70;;;;;;;18.35;81.91;102010.69;6250041;28;20672;-72
2021/07/22 08:44:06;;;;;;;9.43;5.55;;;;;;;18.50;81.57;102014.97;6249787;28;20057;-76
2021/07/22 08:47:09;;;;;;;11.98;5.70;;;;;;;18.52;80.11;102018.38;6249986;28;20060;-75
2021/07/22 08:50:13;;;;;;;8.68;5.35;;;;;;;18.48;81.09;102016.03;6249710;28;20053;-75
2021/07/22 08:53:16;;;;;;;8.52;5.10;;;;;;;18.55;82.22;102017.34;6249587;28;20056;-75
2021/07/22 08:56:24;;;;;;;10.55;5.43;;;;;;;18.61;80.83;102008.09;6249424;28;20076;-76
2021/07/22 08:59:27;;;;;;;10.77;6.22;;;;;;;18.60;78.77;102011.72;6249712;28;20057;-77
2021/07/22 09:02:30;;;;;;;10.02;5.68;;;;;;;18.61;79.74;102013.41;6249216;28;20053;-77
2021/07/22 09:05:31;;;;;;;9.52;5.15;;;;;;;18.72;78.61;102008.25;6249174;28;20107;-75
2021/07/22 09:08:33;;;;;;;8.80;4.90;;;;;;;18.90;79.00;102008.81;6248810;28;20049;-75
2021/07/22 09:11:36;;;;;;;8.23;5.15;;;;;;;18.96;77.40;102000.41;6249430;28;20049;-76
2021/07/22 09:14:37;;;;;;;8.60;4.93;;;;;;;18.99;78.87;101994.88;6247327;28;20072;-76
2021/07/22 09:17:38;;;;;;;10.23;5.28;;;;;;;19.09;75.84;101990.59;6248839;28;20049;-76
2021/07/22 09:20:40;;;;;;;7.22;4.70;;;;;;;19.15;76.30;101999.97;6249259;28;20056;-77
2021/07/22 09:23:42;;;;;;;8.57;5.00;;;;;;;19.23;77.91;102003.81;6248109;28;20508;-76
2021/07/22 09:26:46;;;;;;;9.90;5.05;;;;;;;19.27;76.22;101993.81;6249081;28;20053;-78
2021/07/22 09:29:57;;;;;;;10.98;5.35;;;;;;;19.22;75.09;101994.13;6248989;28;20077;-77
2021/07/22 09:32:58;;;;;;;12.25;5.63;;;;;;;19.25;77.15;101993.88;6248763;28;20295;-76
2021/07/22 09:35:59;;;;;;;8.68;4.80;;;;;;;19.33;72.89;101998.69;6248572;28;20052;-77
2021/07/22 09:39:20;;;;;;;7.68;5.05;;;;;;;19.31;73.25;101997.97;6249025;28;20514;-76
2021/07/22 09:42:23;;;;;;;8.35;5.07;;;;;;;19.35;76.93;101990.56;6248608;28;20052;-77
2021/07/22 09:45:26;;;;;;;11.30;5.00;;;;;;;19.59;75.60;101988.00;6248828;28;20072;-76
2021/07/22 09:48:27;;;;;;;10.88;5.15;;;;;;;19.71;74.05;101990.69;6248282;28;20080;-77
2021/07/22 09:51:32;;;;;;;9.95;5.53;;;;;;;19.50;71.13;101994.84;6248696;28;20054;-77
2021/07/22 09:54:35;;;;;;;13.43;5.65;;;;;;;19.32;73.13;101993.47;6247956;28;20053;-77
2021/07/22 09:57:40;;;;;;;13.10;5.68;;;;;;;19.40;71.14;101991.13;6248293;28;20140;-76
2021/07/22 10:00:47;;;;;;;14.13;6.25;;;;;;;19.22;73.52;101987.94;6248432;28;20045;-77
2021/07/22 10:03:48;;;;;;;11.25;6.40;;;;;;;19.17;72.94;101980.28;6247834;28;20452;-77
2021/07/22 10:06:51;;;;;;;15.02;5.72;;;;;;;19.27;73.53;101977.81;6247797;28;20053;-76
2021/07/22 10:09:54;;;;;;;9.23;5.80;;;;;;;19.45;71.97;101981.00;6248408;28;20053;-77
2021/07/22 10:12:58;;;;;;;9.27;5.88;;;;;;;19.45;74.79;101983.66;6246924;28;20054;-77
2021/07/22 10:16:01;;;;;;;9.38;6.18;;;;;;;19.75;69.46;101981.47;6247659;28;20061;-76
2021/07/22 10:19:05;;;;;;;10.57;5.75;;;;;;;19.64;71.70;101978.75;6249011;28;20050;-78
2021/07/22 10:22:08;;;;;;;10.90;6.30;;;;;;;19.64;71.95;101975.22;6248537;28;20049;-77
2021/07/22 10:25:13;;;;;;;12.05;5.70;;;;;;;19.59;70.76;101980.00;6247315;28;20092;-77
2021/07/22 10:28:16;;;;;;;9.20;5.55;;;;;;;19.89;74.25;101979.63;6247686;28;20045;-77
2021/07/22 10:31:18;;;;;;;9.13;5.70;;;;;;;20.07;70.03;101972.94;6249376;28;20128;-77
2021/07/22 10:34:20;;;;;;;12.00;6.85;;;;;;;19.94;71.20;101964.13;6247991;28;20053;-77
2021/07/22 10:37:22;;;;;;;7.68;5.60;;;;;;;20.14;69.00;101963.50;6249805;28;20203;-78
2021/07/22 10:40:44;;;;;;;11.98;5.90;;;;;;;20.12;71.33;101962.78;6248476;28;20501;-78
2021/07/22 10:43:47;;;;;;;12.45;6.63;;;;;;;20.00;72.45;101958.34;6249011;28;20041;-77
2021/07/22 10:46:54;;;;;;;11.23;6.13;;;;;;;20.00;73.35;101959.19;6247985;28;20049;-77
2021/07/22 10:49:55;;;;;;;10.70;6.75;;;;;;;20.10;70.94;101956.69;6247968;28;20132;-77
2021/07/22 10:53:03;;;;;;;11.20;6.47;;;;;;;20.14;72.28;101957.31;6247471;28;20073;-77
2021/07/22 10:56:04;;;;;;;12.07;6.72;;;;;;;20.07;72.86;101956.06;6248475;28;20497;-78
2021/07/22 10:59:07;;;;;;;10.05;6.10;;;;;;;19.89;73.07;101943.13;6248259;28;20045;-78
2021/07/22 11:02:08;;;;;;;11.95;6.20;;;;;;;20.14;71.61;101952.84;6248098;28;20049;-77
2021/07/22 11:05:11;;;;;;;11.85;6.90;;;;;;;20.23;69.98;101937.94;6248646;28;20064;-78
2021/07/22 11:08:19;;;;;;;12.10;6.60;;;;;;;20.33;71.22;101935.44;6248321;28;20511;-77
2021/07/22 11:11:21;;;;;;;10.48;6.45;;;;;;;20.79;70.48;101927.44;6248496;28;20125;-78
2021/07/22 11:14:32;;;;;;;11.88;6.43;;;;;;;21.08;68.65;101930.53;6247315;28;20042;-78
2021/07/22 11:17:35;;;;;;;12.50;6.68;;;;;;;20.87;69.53;101935.72;6247508;28;20061;-77
2021/07/22 11:20:38;;;;;;;12.07;6.78;;;;;;;20.75;69.58;101923.31;6247240;28;20046;-77
2021/07/22 11:23:40;;;;;;;13.32;7.10;;;;;;;20.57;69.34;101927.41;6247154;28;20432;-77
2021/07/22 11:26:42;;;;;;;14.50;7.13;;;;;;;20.16;72.74;101918.84;6247111;28;20059;-77
2021/07/22 11:29:44;;;;;;;14.15;7.63;;;;;;;20.19;72.18;101931.97;6246826;28;20489;-77
2021/07/22 11:32:46;;;;;;;12.02;6.82;;;;;;;20.24;70.32;101918.28;6247099;28;20049;-78
2021/07/22 11:35:56;;;;;;;18.58;7.05;;;;;;;20.12;73.61;101924.53;6246237;28;20046;-77
2021/07/22 11:38:58;;;;;;;12.55;7.70;;;;;;;20.50;73.71;101924.38;6251819;28;20045;-77
2021/07/22 11:42:05;;;;;;;14.10;7.60;;;;;;;21.27;68.01;101922.75;6251506;28;20492;-77
2021/07/22 11:45:08;;;;;;;9.90;7.43;;;;;;;21.95;66.18;101919.97;6251199;28;20053;-77
2021/07/22 11:48:23;;;;;;;12.73;6.75;;;;;;;21.84;65.56;101920.84;6251429;28;20053;-76
2021/07/22 11:51:24;;;;;;;13.23;7.68;;;;;;;22.07;65.59;101912.72;6252113;28;20050;-77
2021/07/22 11:54:25;;;;;;;10.68;7.07;;;;;;;21.77;66.68;101906.28;6250024;28;20042;-76
2021/07/22 11:57:27;;;;;;;13.38;7.70;;;;;;;21.37;67.99;101917.53;6250279;28;20061;-78
2021/07/22 12:00:34;;;;;;;14.38;7.18;;;;;;;21.16;69.14;101913.84;6249013;28;20041;-77
2021/07/22 12:03:36;;;;;;;13.82;7.90;;;;;;;20.97;70.29;101909.13;6251146;28;20052;-77
2021/07/22 12:06:37;;;;;;;51.20;12.82;;;;;;;20.91;71.55;101909.63;6251661;28;20056;-77
2021/07/22 12:09:53;;;;;;;58.33;15.77;;;;;;;20.78;73.03;101907.91;6227280;28;20053;-77
2021/07/22 12:12:57;;;;;;;11.02;7.85;;;;;;;20.69;71.29;101907.75;6226857;28;20199;-77
2021/07/22 12:16:01;;;;;;;13.20;8.13;;;;;;;20.72;71.50;101900.38;6233453;28;20045;-78
2021/07/22 12:19:02;;;;;;;15.15;7.63;;;;;;;20.68;71.48;101901.56;6251339;28;20132;-78
2021/07/22 12:22:20;;;;;;;16.02;8.60;;;;;;;20.97;71.11;101893.09;6252112;28;20053;-77
2021/07/22 12:25:23;;;;;;;15.35;8.77;;;;;;;21.56;67.75;101900.84;6251478;28;20180;-77
2021/07/22 12:28:24;;;;;;;12.57;9.35;;;;;;;21.49;66.39;101895.16;6250616;28;20118;-78
2021/07/22 12:31:36;;;;;;;20.15;8.77;;;;;;;21.38;68.97;101896.97;6247936;28;20128;-77
2021/07/22 12:34:38;;;;;;;12.90;8.10;;;;;;;21.31;68.79;101891.28;6248684;28;20045;-78
2021/07/22 12:37:57;;;;;;;16.20;9.27;;;;;;;21.14;70.48;101883.75;6250859;28;20165;-78
2021/07/22 12:41:07;;;;;;;13.70;8.02;;;;;;;21.24;71.70;101890.88;6250389;28;20398;-77
2021/07/22 12:44:08;;;;;;;19.70;9.45;;;;;;;21.64;68.04;101878.81;6250127;28;20056;-78
2021/07/22 12:47:34;;;;;;;22.35;9.55;;;;;;;22.69;64.00;101871.75;6252027;28;20054;-79
2021/07/22 12:50:38;;;;;;;10.60;7.55;;;;;;;23.14;61.91;101860.69;6250768;28;20447;-78
2021/07/22 12:53:40;;;;;;;13.40;8.57;;;;;;;23.01;60.93;101869.78;6251543;28;20123;-78
2021/07/22 12:56:43;;;;;;;11.10;7.35;;;;;;;23.16;58.36;101869.41;6251091;28;20096;-78
2021/07/22 12:59:44;;;;;;;13.70;7.28;;;;;;;23.61;58.92;101860.91;6252180;28;20519;-77
2021/07/22 13:02:58;;;;;;;12.55;7.50;;;;;;;23.37;56.17;101851.41;6247978;28;20053;-77
2021/07/22 13:05:59;;;;;;;13.05;8.00;;;;;;;22.72;59.66;101853.56;6250162;28;20042;-76
2021/07/22 13:09:00;;;;;;;11.98;7.50;;;;;;;22.42;61.27;101853.53;6249224;28;20413;-77
2021/07/22 13:12:03;;;;;;;13.88;7.18;;;;;;;22.38;59.93;101841.38;6250476;28;20056;-77
2021/07/22 13:15:05;;;;;;;10.52;7.35;;;;;;;22.79;57.46;101838.63;6251689;28;20045;-78
2021/07/22 13:18:08;;;;;;;9.55;6.65;;;;;;;23.39;54.87;101838.72;6254198;28;20049;-77
2021/07/22 13:21:11;;;;;;;10.48;6.60;;;;;;;23.43;55.16;101833.91;6254235;28;20045;-79
2021/07/22 13:24:13;;;;;;;12.05;6.65;;;;;;;23.41;57.57;101830.53;6253988;28;20060;-77
2021/07/22 13:27:14;;;;;;;10.38;6.55;;;;;;;22.93;56.90;101837.44;6251534;28;20061;-78
2021/07/22 13:30:16;;;;;;;11.57;6.40;;;;;;;22.60;58.21;101826.97;6252553;28;20141;-78
2021/07/22 13:33:19;;;;;;;13.73;6.53;;;;;;;22.22;58.46;101823.97;6252393;28;20060;-79
2021/07/22 13:36:20;;;;;;;9.55;5.95;;;;;;;22.57;58.22;101825.41;6254029;28;20053;-79
2021/07/22 13:39:21;;;;;;;9.70;6.05;;;;;;;23.15;57.88;101828.34;6253754;28;20054;-79
2021/07/22 13:42:23;;;;;;;10.60;5.55;;;;;;;23.54;55.62;101826.59;6252210;28;20053;-79
2021/07/22 13:45:25;;;;;;;10.38;5.38;;;;;;;23.08;60.02;101821.00;6252074;28;20049;-79
2021/07/22 13:48:27;;;;;;;7.45;5.22;;;;;;;22.65;58.86;101832.78;6252262;28;20424;-79
2021/07/22 13:51:29;;;;;;;8.18;5.13;;;;;;;22.19;60.52;101829.56;6253993;28;20045;-78
2021/07/22 13:54:30;;;;;;;9.15;5.65;;;;;;;21.92;61.30;101824.69;6252678;28;20041;-79